createdAt,value
2022-10-13T00:04:36.332Z,73.78
2022-10-13T00:09:39.539Z,73.94
2022-10-13T00:14:42.747Z,74.04
2022-10-13T00:19:45.819Z,74.20
2022-10-13T00:24:52.955Z,74.23
2022-10-13T00:29:57.195Z,74.49
2022-10-13T00:35:00.903Z,74.75
2022-10-13T00:40:04.933Z,74.91
2022-10-13T00:45:29.953Z,75.08
2022-10-13T00:50:38.386Z,75.05
2022-10-13T00:55:44.484Z,75.03
2022-10-13T01:00:50.559Z,75.25
2022-10-13T01:05:57.456Z,75.62
2022-10-13T01:11:09.239Z,75.80
2022-10-13T01:16:27.908Z,76.07
2022-10-13T01:21:41.358Z,75.93
2022-10-13T01:27:46.109Z,75.87
2022-10-13T01:33:07.646Z,75.90
2022-10-13T01:38:23.049Z,75.95
2022-10-13T01:43:37.003Z,76.05
2022-10-13T01:48:43.024Z,76.19
2022-10-13T01:53:47.923Z,76.21
2022-10-13T01:58:53.549Z,76.31
2022-10-13T02:04:15.538Z,76.66
2022-10-13T02:09:24.589Z,76.50
2022-10-13T02:14:34.702Z,76.67
2022-10-13T02:19:40.453Z,76.52
2022-10-13T02:24:43.835Z,76.85
2022-10-13T02:29:56.281Z,76.89
2022-10-13T02:34:59.981Z,76.91
2022-10-13T02:40:03.597Z,76.91
2022-10-13T02:45:08.347Z,77.15
2022-10-13T02:50:11.756Z,77.45
2022-10-13T02:55:15.065Z,77.37
2022-10-13T03:00:18.279Z,77.49
2022-10-13T03:05:21.481Z,77.63
2022-10-13T03:10:24.691Z,77.58
2022-10-13T03:15:27.899Z,77.76
2022-10-13T03:20:31.110Z,77.94
2022-10-13T03:25:35.106Z,77.78
2022-10-13T03:30:38.240Z,77.87
2022-10-13T03:35:41.449Z,78.06
2022-10-13T03:40:44.656Z,77.87
2022-10-13T03:45:58.619Z,77.88
2022-10-13T03:51:10.223Z,78.18
2022-10-13T03:56:17.767Z,78.14
2022-10-13T04:01:25.486Z,78.38
2022-10-13T04:06:29.678Z,78.36
2022-10-13T04:11:33.193Z,78.27
2022-10-13T04:16:37.431Z,78.40
2022-10-13T04:21:41.966Z,78.48
2022-10-13T04:26:46.610Z,78.30
2022-10-13T04:31:50.635Z,78.37
2022-10-13T04:36:54.047Z,78.50
2022-10-13T04:41:57.258Z,78.58
2022-10-13T04:47:01.618Z,78.66
2022-10-13T04:52:05.006Z,78.62
2022-10-13T04:57:08.215Z,78.71
2022-10-13T05:02:11.628Z,78.65
2022-10-13T05:07:18.755Z,78.55
2022-10-13T05:12:23.458Z,78.79
2022-10-13T05:17:34.144Z,78.79
2022-10-13T05:22:38.385Z,78.90
2022-10-13T05:27:41.594Z,78.87
2022-10-13T05:32:44.802Z,79.00
2022-10-13T05:37:48.011Z,78.97
2022-10-13T05:42:51.731Z,79.15
2022-10-13T05:47:54.939Z,79.02
2022-10-13T05:52:58.251Z,79.17
2022-10-13T05:58:02.516Z,79.04
2022-10-13T06:03:11.425Z,78.95
2022-10-13T06:08:16.274Z,79.16
2022-10-13T06:13:19.481Z,79.22
2022-10-13T06:18:22.791Z,79.29
2022-10-13T06:23:25.900Z,79.43
2022-10-13T06:28:29.169Z,79.47
2022-10-13T06:33:32.908Z,79.26
2022-10-13T06:38:36.546Z,79.33
2022-10-13T06:43:40.572Z,79.26
2022-10-13T06:48:43.883Z,79.00
2022-10-13T06:53:47.094Z,79.16
2022-10-13T06:58:50.302Z,79.30
2022-10-13T07:03:53.509Z,79.31
2022-10-13T07:08:56.615Z,79.26
2022-10-13T07:19:08.257Z,78.73
2022-10-13T07:24:12.283Z,78.75
2022-10-13T07:29:15.490Z,78.20
2022-10-13T07:34:18.705Z,78.27
2022-10-13T07:39:21.805Z,78.05
2022-10-13T07:44:25.325Z,77.98
2022-10-13T07:49:28.530Z,77.43
2022-10-13T07:54:31.839Z,77.11
2022-10-13T07:59:35.354Z,77.06
2022-10-13T08:04:39.354Z,76.86
2022-10-13T08:09:43.003Z,77.08
2022-10-13T08:14:46.311Z,76.30
2022-10-13T08:19:51.976Z,76.42
2022-10-13T08:24:56.212Z,75.80
2022-10-13T08:29:59.418Z,75.75
2022-10-13T08:35:02.833Z,75.38
2022-10-13T08:40:07.268Z,75.04
2022-10-13T08:50:44.825Z,74.46
2022-10-13T08:55:51.078Z,73.90
2022-10-13T09:01:09.367Z,73.37
2022-10-13T09:06:17.786Z,73.25
2022-10-13T09:11:21.314Z,72.89
2022-10-13T09:16:40.382Z,72.88
2022-10-13T09:21:43.797Z,71.76
2022-10-13T09:26:50.177Z,71.07
2022-10-13T09:32:16.639Z,70.76
2022-10-13T09:37:24.955Z,70.43
2022-10-13T09:42:30.570Z,70.21
2022-10-13T09:47:33.937Z,69.91
2022-10-13T09:52:37.355Z,69.68
2022-10-13T09:57:48.544Z,69.35
2022-10-13T10:03:13.274Z,68.70
2022-10-13T10:08:28.773Z,68.14
2022-10-13T10:13:37.317Z,67.55
2022-10-13T10:18:48.893Z,67.23
2022-10-13T10:24:00.807Z,66.69
2022-10-13T10:29:36.264Z,66.44
2022-10-13T10:34:50.847Z,66.29
2022-10-13T10:40:23.340Z,64.86
2022-10-13T10:45:28.775Z,64.13
2022-10-13T10:50:34.591Z,63.63
2022-10-13T10:56:03.485Z,63.30
2022-10-13T11:01:14.189Z,62.13
2022-10-13T11:06:17.373Z,62.26
2022-10-13T11:11:25.038Z,62.24
2022-10-13T11:17:00.858Z,61.35
2022-10-13T11:22:04.068Z,60.49
2022-10-13T11:27:16.287Z,59.97
2022-10-13T11:32:31.475Z,60.20
2022-10-13T11:38:06.651Z,60.21
2022-10-13T11:43:32.270Z,59.63
2022-10-13T11:49:30.875Z,58.94
2022-10-13T11:54:55.384Z,58.19
2022-10-13T11:59:58.898Z,57.71
2022-10-13T12:05:19.821Z,57.41
2022-10-13T12:10:32.389Z,56.51
2022-10-13T12:15:43.501Z,56.63
2022-10-13T12:20:53.407Z,56.51
2022-10-13T12:25:58.388Z,55.89
2022-10-13T12:31:01.571Z,55.84
2022-10-13T12:36:19.111Z,55.69
2022-10-13T12:41:29.029Z,55.50
2022-10-13T12:46:39.358Z,55.76
2022-10-13T12:51:44.994Z,55.34
2022-10-13T12:56:52.403Z,54.64
2022-10-13T13:02:01.807Z,54.24
2022-10-13T13:07:07.117Z,53.89
2022-10-13T13:12:13.417Z,53.57
2022-10-13T13:17:33.009Z,53.42
2022-10-13T13:22:42.787Z,53.66
2022-10-13T13:27:45.977Z,53.46
2022-10-13T13:32:49.802Z,53.33
2022-10-13T13:37:53.529Z,52.86
2022-10-13T13:42:56.731Z,52.72
2022-10-13T13:48:01.146Z,52.43
2022-10-13T13:53:05.403Z,52.60
2022-10-13T13:58:10.396Z,52.23
2022-10-13T14:03:17.143Z,52.38
2022-10-13T14:08:22.501Z,52.09
2022-10-13T14:13:25.604Z,52.04
2022-10-13T14:18:29.227Z,52.25
2022-10-13T14:23:32.535Z,52.32
2022-10-13T14:28:35.703Z,52.24
2022-10-13T14:33:39.359Z,51.96
2022-10-13T14:38:42.466Z,52.10
2022-10-13T14:43:45.777Z,51.97
2022-10-13T14:48:49.602Z,51.63
2022-10-13T14:53:52.708Z,50.79
2022-10-13T14:58:58.066Z,50.09
2022-10-13T15:04:02.094Z,49.84
2022-10-13T15:09:05.941Z,48.82
2022-10-13T15:14:10.048Z,49.10
2022-10-13T15:19:13.460Z,48.04
2022-10-13T15:24:16.564Z,47.55
2022-10-13T15:29:19.670Z,47.51
2022-10-13T15:34:22.777Z,47.53
2022-10-13T15:39:25.882Z,47.26
2022-10-13T15:44:40.284Z,47.49
2022-10-13T15:49:52.782Z,47.72
2022-10-13T15:54:57.114Z,48.12
2022-10-13T16:00:00.334Z,48.50
2022-10-13T16:05:05.699Z,48.84
2022-10-13T16:10:12.599Z,49.33
2022-10-13T16:15:20.307Z,49.72
2022-10-13T16:20:23.396Z,50.01
2022-10-13T16:25:28.346Z,50.37
2022-10-13T16:30:32.299Z,50.71
2022-10-13T16:35:35.799Z,51.08
2022-10-13T16:40:42.194Z,51.03
2022-10-13T16:46:00.108Z,51.88
2022-10-13T16:51:10.859Z,52.35
2022-10-13T16:56:14.735Z,52.85
2022-10-13T17:01:18.947Z,53.26
2022-10-13T17:06:25.019Z,53.62
2022-10-13T17:11:30.669Z,53.53
2022-10-13T17:16:34.630Z,53.99
2022-10-13T17:21:37.942Z,54.31
2022-10-13T17:26:41.153Z,54.43
2022-10-13T17:31:44.563Z,55.03
2022-10-13T17:36:47.672Z,55.46
2022-10-13T17:41:51.082Z,55.84
2022-10-13T17:46:54.290Z,55.97
2022-10-13T17:51:57.600Z,56.25
2022-10-13T17:57:01.217Z,56.82
2022-10-13T18:02:04.569Z,57.36
2022-10-13T18:07:09.890Z,57.93
2022-10-13T18:12:13.916Z,58.24
2022-10-13T22:34:31.978Z,71.00
2022-10-13T22:39:35.184Z,71.09
2022-10-13T22:44:38.189Z,71.17
2022-10-13T22:49:41.296Z,71.23
2022-10-13T22:54:44.606Z,71.33
2022-10-13T22:59:47.817Z,71.31
2022-10-13T23:04:50.818Z,71.36
2022-10-13T23:09:54.128Z,71.36
2022-10-13T23:14:57.029Z,71.29
2022-10-13T23:20:00.348Z,71.55
2022-10-13T23:25:04.065Z,71.65
2022-10-13T23:30:08.191Z,71.82
2022-10-13T23:35:11.201Z,71.74
2022-10-13T23:40:14.299Z,71.83
2022-10-13T23:45:17.507Z,71.94
2022-10-13T23:50:20.613Z,71.87
2022-10-13T23:55:23.823Z,72.18
